Time;durP1;ratioP1;P1;durP2;ratioP2;P2;SDS_P1;SDS_P2;PMS_P1;PMS_P2;Temp;Humidity;BMP_temperature;BMP_pressure;BME280_temperature;BME280_humidity;BME280_pressure;Samples;Min_cycle;Max_cycle;Signal;HPM_P1;HPM_P2
2021/01/08 00:01:27;;;;;;;48.55;21.67;;;;;;;1.27;84.77;99710.28;4953266;28;20097;-66
2021/01/08 00:03:54;;;;;;;47.88;20.80;;;;;;;1.26;84.54;99713.72;4953731;28;20415;-64
2021/01/08 00:06:20;;;;;;;48.92;22.80;;;;;;;1.23;84.39;99713.72;4954406;29;20499;-65
2021/01/08 00:08:47;;;;;;;45.70;19.38;;;;;;;1.25;84.66;99701.69;4954505;28;20050;-65
2021/01/08 00:11:19;;;;;;;43.67;22.77;;;;;;;1.26;84.60;99708.56;4954700;29;20047;-65
2021/01/08 00:13:46;;;;;;;46.45;21.45;;;;;;;1.26;84.48;99708.56;4954711;29;20058;-64
2021/01/08 00:16:12;;;;;;;41.80;20.65;;;;;;;1.28;84.63;99711.13;4954629;29;20130;-65
2021/01/08 00:18:38;;;;;;;46.42;20.13;;;;;;;1.28;84.58;99709.41;4953951;28;20421;-65
2021/01/08 00:21:05;;;;;;;42.42;20.23;;;;;;;1.27;84.48;99710.28;4954069;29;20471;-65
2021/01/08 00:23:31;;;;;;;45.33;20.80;;;;;;;1.28;84.39;99711.13;4954301;29;20114;-64
2021/01/08 00:25:57;;;;;;;37.85;18.75;;;;;;;1.26;84.46;99718.91;4954674;28;20483;-65
2021/01/08 00:28:23;;;;;;;42.78;18.70;;;;;;;1.26;84.62;99715.47;4954212;29;20047;-66
2021/01/08 00:30:49;;;;;;;35.35;18.92;;;;;;;1.25;84.54;99712.03;4953173;28;20039;-65
2021/01/08 00:33:15;;;;;;;43.25;18.85;;;;;;;1.26;84.46;99708.56;4954029;28;20051;-65
2021/01/08 00:35:42;;;;;;;41.00;19.23;;;;;;;1.25;84.55;99717.19;4953651;28;20495;-65
2021/01/08 00:38:09;;;;;;;39.63;17.33;;;;;;;1.25;84.61;99717.19;4954514;29;20047;-65
2021/01/08 00:40:35;;;;;;;40.58;19.08;;;;;;;1.26;84.35;99721.47;4954735;29;20053;-64
2021/01/08 00:43:01;;;;;;;44.72;19.48;;;;;;;1.27;84.59;99719.75;4954059;29;20058;-65
2021/01/08 00:45:27;;;;;;;42.35;18.08;;;;;;;1.29;84.33;99718.88;4954402;29;20086;-65
2021/01/08 00:47:53;;;;;;;44.00;19.02;;;;;;;1.31;84.52;99717.13;4954296;28;20055;-65
2021/01/08 00:50:19;;;;;;;48.92;19.75;;;;;;;1.31;84.47;99714.53;4953853;29;20057;-66
2021/01/08 00:52:46;;;;;;;38.97;18.75;;;;;;;1.31;84.37;99717.13;4954203;29;20170;-65
2021/01/08 00:55:13;;;;;;;40.17;20.02;;;;;;;1.31;84.41;99717.13;4954253;29;20483;-65
2021/01/08 00:57:39;;;;;;;40.30;18.65;;;;;;;1.33;84.40;99709.34;4953357;28;20047;-65
2021/01/08 01:00:07;;;;;;;40.67;19.58;;;;;;;1.31;84.26;99711.09;4952573;28;20480;-64
2021/01/08 01:02:33;;;;;;;40.17;18.90;;;;;;;1.31;84.38;99718.84;4953210;28;20134;-65
2021/01/08 01:04:59;;;;;;;41.50;18.90;;;;;;;1.30;84.18;99710.25;4953210;28;20044;-65
2021/01/08 01:07:26;;;;;;;47.15;19.58;;;;;;;1.31;84.39;99717.13;4953490;28;20055;-65
2021/01/08 01:09:52;;;;;;;50.70;22.88;;;;;;;1.30;84.46;99712.81;4953532;28;20048;-64
2021/01/08 01:12:19;;;;;;;46.72;19.40;;;;;;;1.30;84.30;99715.41;4953450;28;20053;-65
2021/01/08 01:14:45;;;;;;;39.83;19.30;;;;;;;1.29;84.33;99716.28;4953326;28;20390;-65
2021/01/08 01:17:11;;;;;;;44.60;20.40;;;;;;;1.28;84.37;99712.00;4953479;28;20102;-65
2021/01/08 01:19:38;;;;;;;48.22;21.98;;;;;;;1.27;84.30;99715.44;4953405;28;20094;-66
2021/01/08 01:22:04;;;;;;;40.78;19.73;;;;;;;1.25;84.36;99721.47;4953992;28;20697;-64
2021/01/08 01:24:30;;;;;;;49.30;23.42;;;;;;;1.26;84.38;99723.19;4953695;29;20231;-64
2021/01/08 01:26:58;;;;;;;44.92;20.67;;;;;;;1.27;84.38;99720.59;4953763;28;20147;-65
2021/01/08 01:29:25;;;;;;;51.85;21.70;;;;;;;1.23;84.35;99719.75;4953601;29;20051;-66
2021/01/08 01:31:52;;;;;;;46.15;22.17;;;;;;;1.21;84.45;99715.47;4957164;28;20043;-64
2021/01/08 01:34:19;;;;;;;51.40;21.77;;;;;;;1.19;84.46;99718.06;4957344;29;20087;-64
2021/01/08 01:36:45;;;;;;;48.70;20.45;;;;;;;1.19;84.34;99712.06;4957732;28;20048;-65
2021/01/08 01:39:12;;;;;;;48.05;20.02;;;;;;;1.20;84.36;99717.19;4957556;29;20102;-64
2021/01/08 01:41:38;;;;;;;41.53;19.58;;;;;;;1.22;84.40;99719.75;4957342;28;20047;-64
2021/01/08 01:44:05;;;;;;;42.22;20.10;;;;;;;1.23;84.47;99705.97;4957221;29;20101;-64
2021/01/08 01:46:32;;;;;;;38.10;18.33;;;;;;;1.22;84.34;99717.19;4955238;28;20047;-65
2021/01/08 01:48:58;;;;;;;37.83;17.67;;;;;;;1.20;84.36;99712.03;4956324;28;20406;-64
2021/01/08 01:51:25;;;;;;;41.08;21.00;;;;;;;1.18;84.36;99712.94;4956933;28;20094;-66
2021/01/08 01:53:52;;;;;;;40.88;19.85;;;;;;;1.17;84.39;99714.66;4956749;29;20055;-64
2021/01/08 01:56:18;;;;;;;42.22;19.17;;;;;;;1.17;84.22;99719.81;4956466;29;20182;-65
2021/01/08 01:58:44;;;;;;;42.42;20.13;;;;;;;1.17;84.60;99712.06;4956945;28;20051;-65
2021/01/08 02:01:10;;;;;;;43.20;20.10;;;;;;;1.19;84.65;99718.06;4956835;29;20054;-65
2021/01/08 02:03:42;;;;;;;46.20;20.45;;;;;;;1.20;84.45;99716.34;4956547;29;20106;-66
2021/01/08 02:06:12;;;;;;;45.05;21.73;;;;;;;1.19;84.27;99717.22;4956654;29;20414;-65
2021/01/08 02:08:42;;;;;;;40.65;19.85;;;;;;;1.17;84.49;99713.78;4956829;29;20098;-65
2021/01/08 02:11:11;;;;;;;47.58;20.90;;;;;;;1.14;84.43;99709.53;4956801;29;20120;-64
2021/01/08 02:13:41;;;;;;;41.90;19.02;;;;;;;1.14;84.36;99708.66;4956869;29;20059;-65
2021/01/08 02:16:09;;;;;;;45.42;20.25;;;;;;;1.12;84.49;99711.25;4956966;29;20055;-64
2021/01/08 02:18:37;;;;;;;45.83;21.13;;;;;;;1.12;84.55;99711.25;4954770;28;20130;-63
2021/01/08 02:21:08;;;;;;;44.70;20.52;;;;;;;1.12;84.56;99716.44;4943029;28;20082;-64
2021/01/08 02:23:42;;;;;;;40.95;18.48;;;;;;;1.08;84.38;99712.16;4955981;28;20047;-64
2021/01/08 02:26:10;;;;;;;42.88;20.02;;;;;;;1.06;84.41;99711.31;4955952;28;20055;-64
2021/01/08 02:28:36;;;;;;;38.85;18.58;;;;;;;1.08;84.62;99704.41;4956120;28;20499;-65
2021/01/08 02:31:02;;;;;;;43.33;19.65;;;;;;;1.08;84.44;99711.31;4955292;29;20058;-65
2021/01/08 02:33:29;;;;;;;41.33;20.25;;;;;;;1.07;84.44;99712.19;4956117;29;20491;-65
2021/01/08 02:35:59;;;;;;;38.40;19.27;;;;;;;1.06;84.40;99710.47;4956366;29;20052;-65
2021/01/08 02:38:26;;;;;;;39.95;19.38;;;;;;;1.06;84.51;99713.06;4956489;29;20048;-66
2021/01/08 02:40:53;;;;;;;37.55;18.23;;;;;;;1.07;84.40;99709.59;4956512;29;20521;-66
2021/01/08 02:43:23;;;;;;;40.05;19.83;;;;;;;1.07;84.33;99717.34;4955432;28;20082;-65
2021/01/08 02:45:49;;;;;;;47.90;19.67;;;;;;;1.06;84.37;99710.47;4955680;29;20054;-65
2021/01/08 02:48:15;;;;;;;43.78;19.58;;;;;;;1.03;84.52;99708.75;4956181;29;20082;-66
2021/01/08 02:50:42;;;;;;;42.63;18.33;;;;;;;1.01;84.32;99717.38;4955829;29;20094;-65
2021/01/08 02:53:13;;;;;;;38.40;17.17;;;;;;;1.00;84.33;99715.66;4955979;29;20060;-66
2021/01/08 02:55:45;;;;;;;38.78;18.58;;;;;;;1.00;84.68;99713.06;4956375;29;20052;-64
2021/01/08 02:58:13;;;;;;;37.60;17.88;;;;;;;1.00;84.37;99716.50;4954501;28;20509;-67
2021/01/08 03:00:41;;;;;;;37.70;18.15;;;;;;;0.99;84.52;99719.09;4956334;29;20066;-64
2021/01/08 03:03:07;;;;;;;47.50;18.63;;;;;;;0.96;84.33;99709.66;4955240;29;20059;-64
2021/01/08 03:05:34;;;;;;;35.67;17.45;;;;;;;0.96;84.51;99714.84;4956188;29;20190;-64
2021/01/08 03:08:01;;;;;;;43.00;19.05;;;;;;;0.98;84.43;99712.25;4955850;29;20150;-65
2021/01/08 03:10:28;;;;;;;44.83;20.75;;;;;;;0.99;84.38;99706.22;4956078;29;20063;-66
2021/01/08 03:12:58;;;;;;;42.72;21.13;;;;;;;0.97;84.27;99720.84;4955649;29;20059;-66
2021/01/08 03:15:24;;;;;;;30.42;15.25;;;;;;;0.97;84.18;99718.28;4955703;29;20155;-64
2021/01/08 03:17:51;;;;;;;45.60;20.52;;;;;;;0.94;84.45;99716.56;4955218;29;20509;-65
2021/01/08 03:20:18;;;;;;;46.92;22.33;;;;;;;0.91;84.55;99717.47;4955018;29;20089;-65
2021/01/08 03:22:44;;;;;;;48.97;22.90;;;;;;;0.94;84.50;99726.03;4955243;29;20155;-65
2021/01/08 03:25:11;;;;;;;45.03;21.45;;;;;;;0.93;84.30;99722.59;4954714;29;20051;-65
2021/01/08 03:27:37;;;;;;;51.97;21.80;;;;;;;0.93;84.22;99726.91;4954365;28;20047;-67
2021/01/08 03:30:05;;;;;;;45.05;20.75;;;;;;;0.91;84.38;99721.75;4955382;29;20055;-67
2021/01/08 03:32:31;;;;;;;51.03;21.95;;;;;;;0.95;84.30;99725.16;4954358;29;20047;-66
2021/01/08 03:34:58;;;;;;;43.88;20.45;;;;;;;0.90;84.25;99718.31;4955541;28;20389;-67
2021/01/08 03:37:24;;;;;;;48.67;22.10;;;;;;;0.93;84.30;99719.16;4955127;29;20047;-68
2021/01/08 03:39:50;;;;;;;48.88;20.25;;;;;;;0.95;84.31;99717.44;4955252;29;20047;-66
2021/01/08 03:42:16;;;;;;;44.20;21.58;;;;;;;0.94;84.29;99729.47;4955221;29;20094;-67
2021/01/08 03:44:43;;;;;;;47.45;22.17;;;;;;;0.96;84.27;99719.13;4955158;28;20051;-66
2021/01/08 03:47:09;;;;;;;51.83;21.00;;;;;;;0.97;84.24;99720.84;4955523;29;20229;-67
2021/01/08 03:49:38;;;;;;;43.83;20.48;;;;;;;0.97;84.19;99719.13;4955188;28;20080;-66
2021/01/08 03:52:05;;;;;;;46.20;21.13;;;;;;;0.96;84.33;99713.97;4954657;29;20388;-68
2021/01/08 03:54:32;;;;;;;45.58;20.52;;;;;;;0.98;84.10;99714.81;4954437;28;20098;-67
2021/01/08 03:56:58;;;;;;;41.75;18.52;;;;;;;0.96;84.10;99712.25;4953421;28;20062;-67
2021/01/08 03:59:24;;;;;;;38.83;18.63;;;;;;;0.96;84.11;99713.97;4954589;28;20047;-66
2021/01/08 04:01:50;;;;;;;40.78;20.23;;;;;;;0.94;84.29;99710.56;4953854;29;20062;-67
2021/01/08 04:04:16;;;;;;;38.83;18.60;;;;;;;0.94;84.32;99707.97;4954369;29;20043;-67
2021/01/08 04:06:42;;;;;;;40.63;19.70;;;;;;;0.96;84.31;99706.22;4954533;29;20055;-67
2021/01/08 04:09:09;;;;;;;38.72;19.88;;;;;;;0.96;84.23;99709.66;4954565;29;20062;-66
2021/01/08 04:11:35;;;;;;;41.28;19.67;;;;;;;0.96;84.11;99714.84;4954416;29;20569;-66
2021/01/08 04:14:01;;;;;;;48.42;21.58;;;;;;;0.97;83.99;99711.38;4954635;29;20057;-66
2021/01/08 04:16:32;;;;;;;43.35;20.23;;;;;;;0.95;83.95;99714.84;4954325;29;20499;-66
2021/01/08 04:18:58;;;;;;;44.53;19.77;;;;;;;0.96;84.26;99719.13;4954476;29;20426;-67
2021/01/08 04:21:24;;;;;;;45.33;21.20;;;;;;;0.94;84.08;99718.28;4954364;29;20057;-67
2021/01/08 04:23:50;;;;;;;40.67;19.48;;;;;;;0.96;84.07;99716.56;4954359;29;20050;-67
2021/01/08 04:26:17;;;;;;;41.88;19.35;;;;;;;0.95;84.08;99712.25;4953679;28;20103;-66
2021/01/08 04:28:43;;;;;;;46.78;20.58;;;;;;;0.91;84.03;99712.28;4953044;28;20051;-67
2021/01/08 04:31:09;;;;;;;40.45;20.95;;;;;;;0.93;84.04;99714.00;4953767;28;20057;-66
2021/01/08 04:33:35;;;;;;;38.45;19.75;;;;;;;0.91;84.16;99709.72;4953175;29;20058;-66
2021/01/08 04:36:01;;;;;;;39.63;20.25;;;;;;;0.93;84.06;99716.59;4954456;29;20129;-66
2021/01/08 04:38:27;;;;;;;40.08;18.17;;;;;;;0.89;84.18;99714.03;4954288;29;20047;-67
2021/01/08 04:40:53;;;;;;;40.88;19.88;;;;;;;0.90;84.12;99717.47;4954114;28;20055;-66
2021/01/08 04:43:20;;;;;;;43.17;18.80;;;;;;;0.88;84.12;99714.91;4954140;29;20055;-67
2021/01/08 04:45:46;;;;;;;40.78;19.98;;;;;;;0.88;84.15;99712.31;4954371;29;20052;-67
2021/01/08 04:48:13;;;;;;;43.42;19.20;;;;;;;0.90;84.11;99720.06;4954128;29;20055;-66
2021/01/08 04:50:41;;;;;;;42.17;20.42;;;;;;;0.94;84.13;99715.72;4954321;29;20074;-67
2021/01/08 04:53:07;;;;;;;41.75;20.17;;;;;;;0.92;84.02;99713.16;4954137;29;20043;-67
2021/01/08 04:55:33;;;;;;;44.20;19.42;;;;;;;0.89;84.06;99718.34;4953301;28;20479;-67
2021/01/08 04:58:02;;;;;;;56.53;24.00;;;;;;;0.86;84.16;99714.06;4952684;28;20039;-67
2021/01/08 05:00:29;;;;;;;54.25;23.48;;;;;;;0.85;84.02;99716.66;4953857;29;20061;-67
2021/01/08 05:02:55;;;;;;;42.40;20.42;;;;;;;0.82;83.86;99720.09;4952318;29;20062;-67
2021/01/08 05:05:22;;;;;;;42.28;20.23;;;;;;;0.81;84.24;99720.97;4955168;28;20051;-67
2021/01/08 05:07:49;;;;;;;36.00;18.15;;;;;;;0.80;83.98;99724.41;4957467;29;20047;-67
2021/01/08 05:10:15;;;;;;;37.65;19.52;;;;;;;0.79;84.06;99722.69;4957739;28;20053;-66
2021/01/08 05:12:42;;;;;;;43.83;19.40;;;;;;;0.79;84.22;99727.84;4957498;28;20057;-66
2021/01/08 05:15:11;;;;;;;40.55;16.90;;;;;;;0.77;84.20;99721.84;4957749;29;20047;-66
2021/01/08 05:17:39;;;;;;;41.50;19.65;;;;;;;0.77;84.20;99731.31;4957656;29;20043;-66
2021/01/08 05:20:08;;;;;;;36.65;19.00;;;;;;;0.76;84.30;99733.03;4957386;29;20105;-66
2021/01/08 05:22:34;;;;;;;37.72;18.70;;;;;;;0.77;84.28;99727.00;4957389;29;20059;-66
2021/01/08 05:25:02;;;;;;;38.88;19.48;;;;;;;0.76;84.10;99735.63;4956981;29;20134;-66
2021/01/08 05:27:29;;;;;;;34.03;17.40;;;;;;;0.74;84.21;99734.78;4955709;28;20146;-66
2021/01/08 05:29:55;;;;;;;37.50;18.92;;;;;;;0.74;84.26;99734.78;4955187;28;20098;-67
2021/01/08 05:32:23;;;;;;;40.63;18.38;;;;;;;0.73;84.34;99738.22;4956939;28;20043;-67
2021/01/08 05:34:51;;;;;;;44.03;21.00;;;;;;;0.72;84.13;99739.09;4956963;28;20050;-66
2021/01/08 05:37:17;;;;;;;46.90;21.05;;;;;;;0.72;84.32;99735.66;4949969;28;20503;-67
2021/01/08 05:39:45;;;;;;;45.90;21.65;;;;;;;0.70;84.23;99739.97;4956796;28;20117;-67
2021/01/08 05:42:11;;;;;;;46.20;22.15;;;;;;;0.70;84.33;99742.56;4956523;28;20414;-66
2021/01/08 05:44:38;;;;;;;40.58;19.40;;;;;;;0.69;84.36;99741.69;4957073;28;20044;-66
2021/01/08 05:47:06;;;;;;;38.95;19.95;;;;;;;0.70;84.31;99740.84;4955927;28;20053;-66
2021/01/08 05:49:33;;;;;;;40.53;19.17;;;;;;;0.69;84.35;99736.53;4956949;29;20050;-67
2021/01/08 05:52:00;;;;;;;35.42;19.27;;;;;;;0.71;84.42;99733.94;4957157;29;20054;-66
2021/01/08 05:54:27;;;;;;;41.60;20.17;;;;;;;0.70;84.32;99746.00;4957059;29;20054;-66
2021/01/08 05:56:55;;;;;;;34.70;18.92;;;;;;;0.70;84.31;99747.72;4956207;29;20417;-67
2021/01/08 05:59:25;;;;;;;37.28;18.35;;;;;;;0.67;84.16;99751.19;4956723;29;20420;-66
2021/01/08 06:01:56;;;;;;;38.83;20.20;;;;;;;0.68;84.72;99752.88;4956657;29;20043;-67
2021/01/08 06:04:27;;;;;;;36.25;18.67;;;;;;;0.70;84.31;99751.16;4956399;29;20074;-67
2021/01/08 06:06:53;;;;;;;40.85;19.30;;;;;;;0.69;84.32;99754.59;4956429;29;20051;-67
2021/01/08 06:09:22;;;;;;;43.90;20.25;;;;;;;0.70;84.38;99751.16;4954836;28;20102;-66
2021/01/08 06:11:50;;;;;;;43.67;21.50;;;;;;;0.72;84.22;99756.31;4955912;28;20050;-66
2021/01/08 06:14:17;;;;;;;44.92;21.35;;;;;;;0.71;84.14;99755.44;4956688;29;20077;-66
2021/01/08 06:16:45;;;;;;;43.00;21.05;;;;;;;0.69;84.29;99751.16;4954263;28;20576;-66
2021/01/08 06:19:14;;;;;;;42.65;22.40;;;;;;;0.71;84.25;99755.44;4956280;29;20048;-66
2021/01/08 06:21:42;;;;;;;42.58;23.23;;;;;;;0.71;84.15;99757.16;4956428;28;20143;-66
2021/01/08 06:24:11;;;;;;;50.40;27.50;;;;;;;0.73;84.11;99758.88;4953561;29;20062;-67
2021/01/08 06:26:40;;;;;;;51.03;26.40;;;;;;;0.73;84.06;99758.88;4946778;29;20076;-66
2021/01/08 06:29:16;;;;;;;42.53;23.70;;;;;;;0.71;84.18;99765.75;4946324;29;20513;-66
2021/01/08 06:31:47;;;;;;;52.20;26.70;;;;;;;0.72;84.34;99770.06;4956189;29;20044;-67
2021/01/08 06:34:21;;;;;;;36.83;19.67;;;;;;;0.74;84.22;99768.31;4955417;29;20054;-66
2021/01/08 06:37:02;;;;;;;43.35;22.58;;;;;;;0.72;84.35;99766.63;4953603;29;20410;-66
2021/01/08 06:39:36;;;;;;;45.00;22.08;;;;;;;0.72;84.23;99776.94;4944809;29;20054;-66
2021/01/08 06:42:04;;;;;;;52.88;24.33;;;;;;;0.73;84.34;99773.50;4943111;29;20117;-66
2021/01/08 06:44:31;;;;;;;46.85;21.67;;;;;;;0.72;84.14;99776.94;4946491;28;20123;-66
2021/01/08 06:46:58;;;;;;;55.72;24.13;;;;;;;0.70;84.41;99779.53;4946139;29;20147;-66
2021/01/08 06:49:25;;;;;;;48.50;23.88;;;;;;;0.72;84.30;99779.53;4945072;28;20051;-66
2021/01/08 06:51:51;;;;;;;57.53;24.83;;;;;;;0.72;84.29;99782.09;4946233;28;20529;-67
2021/01/08 06:54:17;;;;;;;49.50;22.45;;;;;;;0.74;84.17;99785.53;4944795;28;20050;-66
2021/01/08 06:56:44;;;;;;;39.28;22.35;;;;;;;0.75;84.18;99782.06;4945478;28;20054;-67
2021/01/08 06:59:12;;;;;;;41.90;22.40;;;;;;;0.75;84.25;99784.66;4948280;28;20465;-66
2021/01/08 07:01:52;;;;;;;46.42;22.73;;;;;;;0.75;84.25;99777.78;4945358;29;20085;-66
2021/01/08 07:04:20;;;;;;;44.35;20.70;;;;;;;0.78;83.99;99782.06;4944027;29;20111;-66
2021/01/08 07:06:46;;;;;;;46.50;22.50;;;;;;;0.78;84.13;99782.91;4941293;29;20059;-66
2021/01/08 07:09:13;;;;;;;53.58;24.60;;;;;;;0.79;84.07;99787.19;4955443;29;20058;-66
2021/01/08 07:11:39;;;;;;;51.88;24.92;;;;;;;0.80;84.16;99788.91;4954871;29;20050;-66
2021/01/08 07:14:06;;;;;;;52.42;25.52;;;;;;;0.84;84.21;99784.63;4955462;29;20110;-66
2021/01/08 07:16:33;;;;;;;56.15;25.40;;;;;;;0.86;84.15;99782.88;4955175;29;20047;-66
2021/01/08 07:19:08;;;;;;;51.80;26.60;;;;;;;0.85;84.16;99787.19;4955205;29;20051;-66
2021/01/08 07:21:34;;;;;;;53.85;26.75;;;;;;;0.91;84.09;99791.44;4954999;29;20210;-66
2021/01/08 07:24:01;;;;;;;58.85;27.13;;;;;;;0.90;84.01;99798.31;4955325;28;20055;-66
2021/01/08 07:26:28;;;;;;;55.20;27.27;;;;;;;0.90;83.98;99794.91;4955331;29;20130;-66
2021/01/08 07:28:55;;;;;;;53.97;27.58;;;;;;;0.91;84.04;99802.63;4954641;28;20400;-66
2021/01/08 07:31:31;;;;;;;72.05;33.53;;;;;;;0.91;84.04;99802.63;4954918;29;20513;-66
2021/01/08 07:34:01;;;;;;;67.88;35.92;;;;;;;0.94;84.02;99803.47;4953864;28;20082;-66
2021/01/08 07:36:29;;;;;;;69.43;36.80;;;;;;;0.95;83.91;99810.34;4949658;29;20048;-66
2021/01/08 07:38:56;;;;;;;71.43;34.80;;;;;;;0.98;83.88;99818.06;4934476;29;20495;-66
2021/01/08 07:41:36;;;;;;;78.13;34.08;;;;;;;0.97;83.96;99813.75;4935585;29;20130;-66
2021/01/08 07:44:04;;;;;;;61.70;32.83;;;;;;;0.97;83.97;99812.03;4935614;29;20517;-65
2021/01/08 07:46:32;;;;;;;51.13;27.70;;;;;;;0.97;84.05;99813.75;4935846;29;20048;-65
2021/01/08 07:49:00;;;;;;;60.72;29.88;;;;;;;0.99;83.90;99817.19;4935191;29;20056;-66
2021/01/08 07:51:45;;;;;;;53.78;26.70;;;;;;;0.95;83.84;99825.81;4935361;29;20070;-66
2021/01/08 07:54:11;;;;;;;52.60;26.50;;;;;;;0.95;83.96;99831.84;4935357;29;20062;-66
2021/01/08 07:57:03;;;;;;;49.30;24.88;;;;;;;0.91;84.13;99825.00;4935565;29;20048;-66
2021/01/08 07:59:29;;;;;;;48.60;24.52;;;;;;;0.95;83.81;99825.81;4935591;29;20063;-65
2021/01/08 08:01:55;;;;;;;55.80;26.70;;;;;;;0.96;84.06;99827.53;4947483;29;20047;-66
2021/01/08 08:04:26;;;;;;;56.58;28.17;;;;;;;0.96;83.94;99824.97;4953316;28;20097;-66
2021/01/08 08:06:52;;;;;;;58.92;29.02;;;;;;;0.95;83.93;99828.41;4936489;29;20044;-66
2021/01/08 08:09:19;;;;;;;61.22;31.17;;;;;;;0.96;83.87;99832.69;4933374;29;20059;-66
2021/01/08 08:11:45;;;;;;;64.07;32.88;;;;;;;0.95;84.00;99837.00;4940361;29;20059;-67
2021/01/08 08:14:14;;;;;;;70.32;31.88;;;;;;;0.97;84.07;99837.84;4934790;29;20052;-66
2021/01/08 08:16:40;;;;;;;56.22;26.10;;;;;;;0.98;83.77;99841.28;4935225;29;20048;-67
2021/01/08 08:19:08;;;;;;;66.15;32.60;;;;;;;1.00;83.97;99840.41;4935226;29;20074;-67
2021/01/08 08:21:36;;;;;;;57.15;29.15;;;;;;;1.04;83.67;99838.66;4935088;29;20056;-68
2021/01/08 08:24:04;;;;;;;51.85;25.70;;;;;;;1.03;83.85;99844.69;4934862;29;20406;-68
2021/01/08 08:26:32;;;;;;;53.63;27.05;;;;;;;1.01;84.01;99846.44;4951612;28;20054;-68
2021/01/08 08:28:59;;;;;;;65.95;29.10;;;;;;;1.00;83.94;99848.16;4953309;28;20057;-68
2021/01/08 08:31:28;;;;;;;88.97;40.45;;;;;;;1.02;83.69;99842.97;4953700;28;20078;-69
2021/01/08 08:33:54;;;;;;;75.18;40.50;;;;;;;1.06;83.66;99839.53;4953238;28;20054;-68
2021/01/08 08:36:21;;;;;;;71.78;34.78;;;;;;;1.05;83.73;99843.84;4953738;29;20063;-67
2021/01/08 08:38:57;;;;;;;69.35;36.95;;;;;;;1.05;83.85;99837.81;4953907;29;20051;-68
2021/01/08 08:41:23;;;;;;;77.43;37.33;;;;;;;1.10;83.73;99836.91;4952895;28;20062;-68
2021/01/08 08:43:49;;;;;;;54.63;27.80;;;;;;;1.14;83.72;99832.59;4952633;28;20051;-67
2021/01/08 08:46:16;;;;;;;71.97;31.20;;;;;;;1.17;83.75;99838.56;4952910;28;20047;-68
2021/01/08 08:48:42;;;;;;;74.10;36.28;;;;;;;1.27;83.57;99829.06;4950412;28;20138;-68
2021/01/08 08:51:08;;;;;;;63.70;33.97;;;;;;;1.29;83.44;99829.91;4948830;28;20451;-68
2021/01/08 08:53:34;;;;;;;63.60;29.33;;;;;;;1.31;83.43;99832.47;4951788;28;20408;-69
2021/01/08 08:56:11;;;;;;;64.47;35.08;;;;;;;1.32;83.52;99832.47;4951071;28;20047;-69
2021/01/08 08:58:44;;;;;;;65.03;35.65;;;;;;;1.37;83.37;99827.25;4943261;28;20115;-69
2021/01/08 09:01:10;;;;;;;82.38;38.15;;;;;;;1.40;83.25;99825.50;4950546;28;20048;-69
2021/01/08 09:03:36;;;;;;;66.47;31.50;;;;;;;1.44;83.30;99836.66;4950875;28;20047;-69
2021/01/08 09:06:10;;;;;;;56.65;27.33;;;;;;;1.42;83.43;99828.91;4950368;28;20122;-69
2021/01/08 09:08:40;;;;;;;58.17;29.33;;;;;;;1.40;83.35;99830.66;4946872;28;20058;-69
2021/01/08 09:11:25;;;;;;;63.30;28.95;;;;;;;1.40;83.62;99829.81;4950028;28;20134;-71
2021/01/08 09:13:54;;;;;;;57.65;27.75;;;;;;;1.49;83.32;99829.75;4948332;28;20134;-70
2021/01/08 09:16:28;;;;;;;52.45;25.73;;;;;;;1.52;83.36;99830.56;4952813;28;20077;-70
2021/01/08 09:19:01;;;;;;;57.78;26.40;;;;;;;1.53;83.24;99821.94;4947179;28;20040;-69
2021/01/08 09:21:33;;;;;;;46.47;22.70;;;;;;;1.53;83.28;99821.94;4949990;28;20051;-69
2021/01/08 09:24:02;;;;;;;57.85;27.40;;;;;;;1.53;83.29;99816.78;4948942;28;20047;-69
2021/01/08 09:26:30;;;;;;;62.45;29.33;;;;;;;1.63;83.13;99816.69;4951095;28;20511;-69
2021/01/08 09:28:57;;;;;;;57.17;28.25;;;;;;;1.64;83.26;99819.25;4946733;28;20051;-71
2021/01/08 09:31:38;;;;;;;50.47;24.77;;;;;;;1.62;83.13;99818.41;4948364;28;20047;-68
2021/01/08 09:34:05;;;;;;;48.08;24.55;;;;;;;1.63;83.20;99821.84;4943391;28;20048;-69
2021/01/08 09:36:32;;;;;;;55.28;26.25;;;;;;;1.65;83.28;99820.97;4946078;28;20043;-68
2021/01/08 09:39:00;;;;;;;51.30;26.50;;;;;;;1.69;83.21;99817.50;4950212;28;20125;-70
2021/01/08 09:41:26;;;;;;;57.50;27.33;;;;;;;1.74;83.04;99810.56;4947897;28;20407;-70
2021/01/08 09:43:57;;;;;;;49.97;24.75;;;;;;;1.74;83.03;99804.53;4949323;28;20134;-70
2021/01/08 09:46:24;;;;;;;50.83;24.17;;;;;;;1.70;83.27;99808.88;4950523;28;20075;-72
2021/01/08 09:48:50;;;;;;;46.08;23.98;;;;;;;1.73;83.30;99813.16;4947271;28;20138;-70
2021/01/08 09:51:17;;;;;;;49.03;25.73;;;;;;;1.80;83.24;99804.47;4948828;28;20051;-70
2021/01/08 09:53:52;;;;;;;69.57;33.53;;;;;;;1.82;83.28;99805.31;4951371;28;20134;-70
2021/01/08 09:56:19;;;;;;;76.60;34.78;;;;;;;1.91;83.17;99806.97;4953364;28;20055;-66
2021/01/08 09:58:45;;;;;;;55.92;26.15;;;;;;;1.95;82.99;99806.06;4955014;28;20059;-66
2021/01/08 10:01:13;;;;;;;62.15;29.75;;;;;;;1.96;83.08;99805.19;4953546;28;20051;-68
2021/01/08 10:03:40;;;;;;;47.20;25.60;;;;;;;1.95;83.17;99796.56;4955654;28;20079;-66
2021/01/08 10:06:10;;;;;;;51.90;25.60;;;;;;;1.94;83.14;99799.16;4954983;28;20407;-66
2021/01/08 10:08:38;;;;;;;57.95;27.83;;;;;;;1.92;83.21;99799.19;4955882;28;20074;-66
2021/01/08 10:11:04;;;;;;;55.28;27.15;;;;;;;1.91;83.17;99796.63;4954331;28;20507;-66
2021/01/08 10:13:32;;;;;;;54.20;27.60;;;;;;;1.89;83.44;99801.81;4951413;28;20074;-66
2021/01/08 10:16:06;;;;;;;51.25;25.88;;;;;;;1.92;83.41;99813.84;4947927;28;20043;-67
2021/01/08 10:18:35;;;;;;;56.05;28.75;;;;;;;1.88;83.38;99797.50;4954290;28;20071;-67
2021/01/08 10:21:05;;;;;;;59.53;26.60;;;;;;;1.80;83.48;99799.31;4951462;28;20047;-68
2021/01/08 10:23:38;;;;;;;53.50;27.40;;;;;;;1.75;83.73;99799.34;4949271;28;20051;-67
2021/01/08 10:26:11;;;;;;;52.97;26.02;;;;;;;1.73;83.68;99800.25;4952042;28;20051;-61
2021/01/08 10:28:47;;;;;;;57.42;27.00;;;;;;;1.71;83.72;99799.41;4946049;29;20057;-61
2021/01/08 10:31:14;;;;;;;56.03;28.35;;;;;;;1.73;83.86;99798.53;4940968;29;20058;-62
2021/01/08 10:33:41;;;;;;;49.72;26.15;;;;;;;1.70;83.74;99793.38;4941081;29;20047;-62
2021/01/08 10:36:07;;;;;;;50.65;25.15;;;;;;;1.68;83.76;99796.84;4938544;29;20052;-61
2021/01/08 10:38:33;;;;;;;56.78;27.33;;;;;;;1.63;83.84;99793.44;4943602;29;20062;-62
2021/01/08 10:41:00;;;;;;;57.67;28.10;;;;;;;1.66;83.95;99796.00;4950722;29;20098;-61
2021/01/08 10:43:26;;;;;;;51.55;27.10;;;;;;;1.68;83.83;99791.69;4953200;28;20168;-61
2021/01/08 10:45:52;;;;;;;69.22;32.10;;;;;;;1.69;83.63;99793.41;4947497;29;20407;-61
2021/01/08 10:48:18;;;;;;;53.65;28.08;;;;;;;1.75;83.72;99790.75;4944909;29;20186;-61
2021/01/08 10:50:47;;;;;;;66.85;30.80;;;;;;;1.73;83.58;99787.31;4946821;28;20057;-60
2021/01/08 10:53:13;;;;;;;55.25;28.60;;;;;;;1.72;83.76;99786.47;4946152;28;20039;-60
2021/01/08 10:55:39;;;;;;;59.17;28.88;;;;;;;1.71;83.80;99783.91;4954190;28;20047;-61
2021/01/08 10:58:05;;;;;;;60.60;30.60;;;;;;;1.72;83.71;99785.63;4954429;29;20416;-61
2021/01/08 11:00:31;;;;;;;54.40;26.98;;;;;;;1.72;83.44;99795.94;4954508;28;20053;-61
2021/01/08 11:02:57;;;;;;;57.17;27.15;;;;;;;1.73;83.57;99793.34;4953161;28;20071;-61
2021/01/08 11:05:23;;;;;;;64.78;31.10;;;;;;;1.75;83.40;99794.19;4953896;29;20043;-61
2021/01/08 11:07:50;;;;;;;63.00;29.85;;;;;;;1.74;83.52;99791.63;4954328;29;20047;-62
2021/01/08 11:10:16;;;;;;;64.45;33.08;;;;;;;1.73;83.51;99782.16;4946124;29;20055;-61
2021/01/08 11:12:43;;;;;;;66.97;33.00;;;;;;;1.74;83.73;99779.56;4944876;29;20459;-61
2021/01/08 11:15:10;;;;;;;64.57;32.30;;;;;;;1.78;83.52;99791.56;4951528;28;20063;-60
2021/01/08 11:17:36;;;;;;;68.95;33.42;;;;;;;1.73;83.63;99788.19;4948955;29;20060;-61
2021/01/08 11:20:03;;;;;;;57.08;31.20;;;;;;;1.72;83.72;99790.78;4944707;28;20083;-60
2021/01/08 11:22:30;;;;;;;65.40;30.42;;;;;;;1.71;83.61;99792.50;4947361;29;20106;-61
2021/01/08 11:24:57;;;;;;;56.25;29.40;;;;;;;1.69;83.52;99790.81;4951769;28;20086;-60
2021/01/08 11:27:23;;;;;;;66.18;32.38;;;;;;;1.69;83.58;99790.81;4950351;29;20043;-61